createdAt,value
2022-09-04T00:01:51.986Z,3.50
2022-09-04T00:04:36.688Z,3.33
2022-09-04T00:07:12.088Z,3.37
2022-09-04T00:10:19.218Z,3.57
2022-09-04T00:12:52.781Z,3.20
2022-09-04T00:15:25.590Z,3.13
2022-09-04T00:18:13.963Z,3.03
2022-09-04T00:20:53.520Z,3.20
2022-09-04T00:23:57.960Z,3.30
2022-09-04T00:26:57.640Z,3.20
2022-09-04T00:29:43.001Z,2.80
2022-09-04T00:32:19.637Z,3.13
2022-09-04T00:34:46.376Z,2.77
2022-09-04T00:37:17.771Z,2.67
2022-09-04T00:39:56.774Z,2.93
2022-09-04T00:42:46.359Z,2.93
2022-09-04T00:45:28.493Z,2.60
2022-09-04T00:48:07.221Z,2.40
2022-09-04T00:51:02.616Z,2.60
2022-09-04T00:54:06.338Z,2.97
2022-09-04T00:56:51.154Z,2.90
2022-09-04T00:59:46.653Z,2.90
2022-09-04T01:02:50.672Z,2.80
2022-09-04T01:05:44.536Z,2.83
2022-09-04T01:08:47.167Z,2.67
2022-09-04T01:11:35.814Z,2.60
2022-09-04T01:14:23.749Z,2.40
2022-09-04T01:17:14.208Z,2.93
2022-09-04T01:20:04.569Z,2.87
2022-09-04T01:23:04.569Z,2.90
2022-09-04T01:26:07.866Z,3.17
2022-09-04T01:28:47.212Z,3.23
2022-09-04T01:31:37.715Z,2.90
2022-09-04T01:34:21.244Z,2.63
2022-09-04T01:37:03.651Z,2.83
2022-09-04T01:39:33.851Z,2.40
2022-09-04T01:42:18.135Z,3.17
2022-09-04T01:44:44.937Z,2.80
2022-09-04T01:47:26.613Z,2.87
2022-09-04T01:50:10.899Z,3.00
2022-09-04T01:52:48.640Z,2.67
2022-09-04T01:55:50.495Z,2.87
2022-09-04T01:58:46.991Z,2.80
2022-09-04T02:01:46.804Z,3.43
2022-09-04T02:04:30.856Z,2.97
2022-09-04T02:07:17.142Z,3.13
2022-09-04T02:10:16.405Z,3.13
2022-09-04T02:12:58.366Z,3.00
2022-09-04T02:16:04.872Z,3.53
2022-09-04T02:18:56.221Z,3.10
2022-09-04T02:21:35.782Z,3.40
2022-09-04T02:24:09.818Z,2.80
2022-09-04T02:27:24.683Z,3.20
2022-09-04T02:29:51.377Z,3.27
2022-09-04T02:32:40.245Z,3.60
2022-09-04T02:35:31.944Z,3.77
2022-09-04T02:38:22.479Z,3.70
2022-09-04T02:41:22.375Z,3.00
2022-09-04T02:44:19.860Z,3.50
2022-09-04T02:47:02.587Z,3.40
2022-09-04T02:49:40.092Z,3.70
2022-09-04T02:52:47.516Z,2.77
2022-09-04T02:55:35.069Z,3.27
2022-09-04T02:58:20.484Z,3.43
2022-09-04T03:01:11.192Z,3.17
2022-09-04T03:03:48.100Z,3.20
2022-09-04T03:06:23.459Z,3.47
2022-09-04T03:08:59.671Z,3.20
2022-09-04T03:11:39.045Z,3.27
2022-09-04T03:14:36.807Z,3.10
2022-09-04T03:17:26.923Z,3.20
2022-09-04T03:20:00.232Z,3.60
2022-09-04T03:22:54.434Z,3.27
2022-09-04T03:25:26.939Z,3.53
2022-09-04T03:27:53.991Z,3.63
2022-09-04T03:30:21.019Z,3.40
2022-09-04T03:33:04.759Z,3.30
2022-09-04T03:35:58.769Z,3.27
2022-09-04T03:38:33.961Z,3.57
2022-09-04T03:41:45.884Z,2.90
2022-09-04T03:44:46.668Z,3.43
2022-09-04T03:47:40.663Z,3.60
2022-09-04T03:50:40.288Z,3.50
2022-09-04T03:53:30.660Z,3.23
2022-09-04T03:56:08.861Z,2.90
2022-09-04T03:58:44.993Z,3.10
2022-09-04T04:01:24.885Z,2.83
2022-09-04T04:04:13.629Z,3.20
2022-09-04T04:06:48.991Z,2.83
2022-09-04T04:09:27.815Z,3.13
2022-09-04T04:12:05.082Z,3.53
2022-09-04T04:14:38.849Z,3.30
2022-09-04T04:17:24.054Z,2.80
2022-09-04T04:20:09.327Z,2.60
2022-09-04T04:22:57.397Z,2.70
2022-09-04T04:26:10.867Z,2.40
2022-09-04T04:28:41.331Z,2.70
2022-09-04T04:31:41.698Z,2.53
2022-09-04T04:34:33.787Z,2.70
2022-09-04T04:37:11.519Z,2.53
2022-09-04T04:40:06.560Z,2.53
2022-09-04T04:42:49.959Z,2.90
2022-09-04T04:45:50.456Z,3.10
2022-09-04T04:48:44.321Z,2.97
2022-09-04T04:51:40.472Z,3.00
2022-09-04T04:54:34.281Z,3.40
2022-09-04T04:57:32.359Z,3.60
2022-09-04T05:00:22.841Z,3.23
2022-09-04T05:03:16.341Z,2.90
2022-09-04T05:05:56.840Z,3.33
2022-09-04T05:08:35.814Z,3.17
2022-09-04T05:11:06.307Z,3.50
2022-09-04T05:13:57.659Z,3.30
2022-09-04T05:16:52.198Z,3.67
2022-09-04T05:19:39.456Z,3.53
2022-09-04T05:22:12.957Z,3.63
2022-09-04T05:24:51.991Z,3.53
2022-09-04T05:27:22.529Z,3.03
2022-09-04T05:29:58.294Z,3.53
2022-09-04T05:32:35.342Z,3.97
2022-09-04T05:35:16.559Z,3.57
2022-09-04T05:38:06.045Z,4.00
2022-09-04T05:41:14.643Z,3.53
2022-09-04T05:43:57.128Z,3.50
2022-09-04T05:46:52.357Z,3.30
2022-09-04T05:49:57.084Z,3.67
2022-09-04T05:52:54.464Z,4.53
2022-09-04T05:55:40.265Z,3.70
2022-09-04T05:58:19.556Z,3.57
2022-09-04T06:00:46.282Z,3.43
2022-09-04T06:04:08.104Z,3.80
2022-09-04T06:06:56.881Z,3.40
2022-09-04T06:09:26.253Z,3.67
2022-09-04T06:12:15.029Z,3.77
2022-09-04T06:14:49.994Z,3.40
2022-09-04T06:17:46.521Z,4.07
2022-09-04T06:20:50.519Z,4.37
2022-09-04T06:23:28.568Z,3.83
2022-09-04T06:26:25.520Z,3.70
2022-09-04T06:29:06.764Z,3.10
2022-09-04T06:31:53.363Z,3.23
2022-09-04T06:34:27.733Z,3.03
2022-09-04T06:37:23.559Z,3.17
2022-09-04T06:40:11.644Z,2.97
2022-09-04T06:42:52.524Z,3.10
2022-09-04T06:45:29.999Z,3.67
2022-09-04T06:48:03.610Z,3.40
2022-09-04T06:50:53.305Z,3.03
2022-09-04T06:53:47.747Z,3.40
2022-09-04T06:56:32.568Z,2.87
2022-09-04T06:59:20.323Z,3.63
2022-09-04T07:01:52.971Z,3.40
2022-09-04T07:04:28.423Z,2.97
2022-09-04T07:07:16.956Z,3.00
2022-09-04T07:09:52.680Z,3.60
2022-09-04T07:12:33.512Z,3.53
2022-09-04T07:15:32.927Z,3.80
2022-09-04T07:18:36.763Z,3.20
2022-09-04T07:21:22.196Z,3.83
2022-09-04T07:23:52.574Z,3.00
2022-09-04T07:26:28.297Z,4.00
2022-09-04T07:29:12.674Z,3.60
2022-09-04T07:31:45.636Z,3.60
2022-09-04T07:34:18.604Z,3.60
2022-09-04T07:37:05.914Z,3.10
2022-09-04T07:39:57.960Z,3.40
2022-09-04T07:42:48.370Z,2.87
2022-09-04T07:45:36.805Z,2.77
2022-09-04T07:48:11.926Z,2.37
2022-09-04T07:50:46.380Z,2.27
2022-09-04T07:53:25.290Z,2.10
2022-09-04T07:55:53.553Z,1.90
2022-09-04T07:58:20.759Z,1.87
2022-09-04T08:00:58.251Z,1.80
2022-09-04T08:03:54.667Z,1.75
2022-09-04T08:06:35.532Z,1.98
2022-09-04T08:09:41.072Z,1.40
2022-09-04T08:12:15.000Z,1.42
2022-09-04T08:15:09.579Z,1.40
2022-09-04T08:17:57.756Z,1.95
2022-09-04T08:20:52.719Z,2.08
2022-09-04T08:23:37.713Z,2.25
2022-09-04T08:26:33.092Z,1.90
2022-09-04T08:29:22.056Z,1.70
2022-09-04T08:32:03.522Z,1.80
2022-09-04T08:34:53.232Z,1.50
2022-09-04T08:37:54.420Z,1.65
2022-09-04T08:40:42.855Z,1.75
2022-09-04T08:43:40.088Z,1.73
2022-09-04T08:46:29.891Z,1.90
2022-09-04T08:49:19.233Z,1.97
2022-09-04T08:52:22.621Z,2.37
2022-09-04T08:55:26.460Z,2.10
2022-09-04T08:58:31.073Z,2.00
2022-09-04T09:01:20.475Z,2.37
2022-09-04T09:03:53.230Z,2.30
2022-09-04T09:06:35.540Z,2.37
2022-09-04T09:09:40.952Z,2.73
2022-09-04T09:12:26.540Z,2.47
2022-09-04T09:15:19.894Z,2.77
2022-09-04T09:18:04.690Z,2.90
2022-09-04T09:20:40.838Z,2.27
2022-09-04T09:23:19.802Z,2.80
2022-09-04T09:25:54.573Z,1.90
2022-09-04T09:28:33.188Z,2.30
2022-09-04T09:31:18.414Z,2.30
2022-09-04T09:34:23.860Z,2.40
2022-09-04T09:37:14.467Z,2.30
2022-09-04T09:39:50.109Z,2.83
2022-09-04T09:42:49.360Z,3.20
2022-09-04T09:45:23.200Z,2.40
2022-09-04T09:48:28.722Z,2.73
2022-09-04T09:51:22.596Z,2.70
2022-09-04T09:54:13.412Z,3.17
2022-09-04T09:57:13.986Z,2.10
2022-09-04T09:59:50.330Z,2.90
2022-09-04T10:02:54.282Z,2.90
2022-09-04T10:05:42.747Z,2.07
2022-09-04T10:08:35.432Z,2.63
2022-09-04T10:11:29.641Z,2.77
2022-09-04T10:14:28.313Z,3.20
2022-09-04T10:17:22.872Z,2.63
2022-09-04T10:20:08.649Z,2.83
2022-09-04T10:22:38.455Z,2.77
2022-09-04T10:25:24.059Z,2.83
2022-09-04T10:28:09.869Z,2.83
2022-09-04T10:30:37.042Z,3.10
2022-09-04T10:33:11.313Z,3.93
2022-09-04T10:35:44.787Z,3.27
2022-09-04T10:38:30.786Z,2.57
2022-09-04T10:41:10.451Z,3.23
2022-09-04T10:43:56.459Z,3.30
2022-09-04T10:46:33.551Z,2.80
2022-09-04T10:49:06.868Z,3.17
2022-09-04T10:51:45.635Z,2.87
2022-09-04T10:54:30.157Z,3.20
2022-09-04T10:56:57.270Z,3.27
2022-09-04T10:59:25.571Z,3.40
2022-09-04T11:02:04.757Z,2.97
2022-09-04T11:04:37.947Z,3.40
2022-09-04T11:07:19.512Z,3.40
2022-09-04T11:10:01.752Z,3.60
2022-09-04T11:13:01.764Z,3.83
2022-09-04T11:15:37.429Z,3.57
2022-09-04T11:18:26.176Z,3.20
2022-09-04T11:20:55.890Z,3.30
2022-09-04T11:23:34.480Z,3.10
2022-09-04T11:26:24.033Z,2.87
2022-09-04T11:28:59.467Z,3.40
2022-09-04T11:32:12.104Z,2.80
2022-09-04T11:34:57.411Z,3.20
2022-09-04T11:37:57.815Z,3.10
2022-09-04T11:40:44.481Z,3.37
2022-09-04T11:43:41.471Z,2.90
2022-09-04T11:46:08.214Z,3.13
2022-09-04T11:49:09.322Z,3.10
2022-09-04T11:52:26.445Z,2.53
2022-09-04T11:55:10.503Z,3.23
2022-09-04T11:57:55.885Z,3.27
2022-09-04T12:00:22.597Z,3.40
2022-09-04T12:02:49.528Z,3.03
2022-09-04T12:05:46.667Z,2.73
2022-09-04T12:08:39.707Z,2.43
2022-09-04T12:11:13.273Z,2.93
2022-09-04T12:13:52.648Z,3.20
2022-09-04T12:16:58.093Z,2.70
2022-09-04T12:20:07.236Z,3.07
2022-09-04T12:23:05.363Z,2.73
2022-09-04T12:26:08.541Z,2.67
2022-09-04T12:29:04.102Z,2.83
2022-09-04T12:31:59.856Z,2.83
2022-09-04T12:34:29.345Z,2.90
2022-09-04T12:37:23.278Z,2.80
2022-09-04T12:40:26.973Z,2.60
2022-09-04T12:43:20.413Z,3.10
2022-09-04T12:46:09.028Z,3.20
2022-09-04T12:48:56.997Z,2.93
2022-09-04T12:51:25.243Z,3.43
2022-09-04T12:53:54.720Z,3.10
2022-09-04T12:56:45.172Z,3.47
2022-09-04T13:00:04.720Z,3.30
2022-09-04T13:02:32.548Z,3.30
2022-09-04T13:05:05.299Z,3.47
2022-09-04T13:07:55.731Z,3.20
2022-09-04T13:10:41.655Z,2.73
2022-09-04T13:13:26.723Z,3.43
2022-09-04T13:16:04.020Z,3.27
2022-09-04T13:18:49.310Z,2.97
2022-09-04T13:21:51.547Z,3.40
2022-09-04T13:24:26.545Z,2.53
2022-09-04T13:27:26.375Z,2.70
2022-09-04T13:30:05.603Z,3.00
2022-09-04T13:32:43.940Z,3.40
2022-09-04T13:35:41.302Z,3.00
2022-09-04T13:38:24.285Z,3.27
2022-09-04T13:41:03.538Z,2.80
2022-09-04T13:43:51.513Z,3.27
2022-09-04T13:46:30.116Z,3.57
2022-09-04T13:49:03.456Z,3.37
2022-09-04T13:51:38.838Z,3.57
2022-09-04T13:54:08.666Z,3.40
2022-09-04T13:56:49.401Z,3.50
2022-09-04T13:59:20.553Z,4.27
2022-09-04T14:01:52.506Z,3.67
2022-09-04T14:04:27.239Z,3.40
2022-09-04T14:07:06.148Z,3.40
2022-09-04T14:09:47.986Z,3.17
2022-09-04T14:12:42.742Z,3.63
2022-09-04T14:15:27.101Z,3.60
2022-09-04T14:18:31.572Z,3.63
2022-09-04T14:21:13.159Z,4.07
2022-09-04T14:24:04.212Z,3.70
2022-09-04T14:27:03.718Z,3.70
2022-09-04T14:30:09.021Z,4.33
2022-09-04T14:32:57.791Z,3.90
2022-09-04T14:35:37.797Z,4.60
2022-09-04T14:38:20.647Z,3.93
2022-09-04T14:41:34.049Z,4.10
2022-09-04T14:44:32.988Z,3.73
2022-09-04T14:47:02.588Z,4.40
2022-09-04T14:49:31.760Z,3.80
2022-09-04T14:52:14.639Z,4.50
2022-09-04T14:54:44.376Z,4.23
2022-09-04T14:57:38.185Z,4.33
2022-09-04T15:00:11.091Z,3.73
2022-09-04T15:03:07.650Z,4.47
2022-09-04T15:05:47.536Z,3.63
2022-09-04T15:08:33.889Z,3.80
2022-09-04T15:11:08.422Z,3.87
2022-09-04T15:13:53.122Z,3.60
2022-09-04T15:16:39.810Z,3.60
2022-09-04T15:19:37.465Z,4.00
2022-09-04T15:22:18.404Z,3.30
2022-09-04T15:24:45.063Z,4.33
2022-09-04T15:27:31.076Z,4.30
2022-09-04T15:30:11.344Z,4.00
2022-09-04T15:32:42.711Z,3.70
2022-09-04T15:35:33.822Z,3.70
2022-09-04T15:38:20.537Z,3.80
2022-09-04T15:41:15.718Z,4.00
2022-09-04T15:43:53.253Z,3.63
2022-09-04T15:46:55.808Z,3.47
2022-09-04T15:49:47.614Z,4.27
2022-09-04T15:52:30.524Z,3.03
2022-09-04T15:55:09.353Z,3.67
2022-09-04T15:57:42.892Z,3.70
2022-09-04T16:00:12.661Z,3.83
2022-09-04T16:03:25.694Z,3.47
2022-09-04T16:06:01.298Z,3.37
2022-09-04T16:08:49.979Z,3.00
2022-09-04T16:11:31.539Z,3.50
2022-09-04T16:14:16.437Z,3.63
2022-09-04T16:16:49.431Z,3.30
2022-09-04T16:19:40.472Z,3.60
2022-09-04T16:22:32.009Z,3.67
2022-09-04T16:25:12.710Z,3.63
2022-09-04T16:28:15.119Z,3.33
2022-09-04T16:30:47.161Z,2.90
2022-09-04T16:33:28.212Z,3.43
2022-09-04T16:36:05.803Z,3.00
2022-09-04T16:39:01.420Z,3.00
2022-09-04T16:41:50.838Z,3.57
2022-09-04T16:44:25.848Z,3.03
2022-09-04T16:47:04.675Z,2.77
2022-09-04T16:49:38.967Z,3.03
2022-09-04T16:52:21.518Z,3.40
2022-09-04T16:54:56.000Z,3.03
2022-09-04T16:57:28.139Z,3.60
2022-09-04T17:00:02.366Z,2.60
2022-09-04T17:02:41.690Z,3.13
2022-09-04T17:05:17.689Z,3.10
2022-09-04T17:07:59.291Z,3.13
2022-09-04T17:10:36.262Z,3.00
2022-09-04T17:13:27.719Z,2.90
2022-09-04T17:16:25.046Z,3.30
2022-09-04T17:18:54.628Z,3.30
2022-09-04T17:29:02.595Z,3.77
2022-09-04T17:29:03.379Z,3.30
2022-09-04T17:29:12.478Z,2.80
2022-09-04T17:31:08.927Z,2.93
2022-09-04T17:38:53.707Z,3.07
2022-09-04T17:40:53.464Z,3.40
2022-09-04T17:40:57.398Z,3.20
2022-09-04T17:43:21.481Z,3.90
2022-09-04T17:45:59.316Z,2.97
2022-09-04T17:48:38.505Z,2.70
2022-09-04T17:51:07.555Z,3.40
2022-09-04T17:53:38.893Z,3.20
2022-09-04T17:56:25.645Z,3.20
2022-09-04T17:59:16.028Z,3.57
2022-09-04T18:01:53.691Z,3.40
2022-09-04T18:04:23.380Z,3.40
2022-09-04T18:06:54.453Z,3.70
2022-09-04T18:09:26.876Z,3.43
2022-09-04T18:12:00.877Z,3.40
2022-09-04T18:14:31.858Z,3.60
2022-09-04T18:17:14.891Z,3.43
2022-09-04T18:19:44.986Z,3.30
2022-09-04T18:22:32.044Z,3.00
2022-09-04T18:25:17.252Z,3.20
2022-09-04T18:27:50.582Z,3.63
2022-09-04T18:37:05.817Z,4.20
2022-09-04T18:37:17.610Z,4.20
2022-09-04T18:37:41.574Z,4.27
2022-09-04T18:40:00.021Z,4.57
2022-09-04T18:50:26.112Z,4.10
2022-09-04T18:50:36.972Z,3.77
2022-09-04T18:50:39.229Z,4.10
2022-09-04T18:51:54.838Z,3.20
2022-09-04T18:54:39.612Z,3.57
2022-09-04T18:57:14.278Z,3.63
2022-09-04T18:59:44.725Z,3.87
2022-09-04T19:02:26.660Z,3.60
2022-09-04T19:04:58.663Z,3.40
2022-09-04T19:07:34.480Z,3.47
2022-09-04T19:10:08.414Z,4.03
2022-09-04T19:12:48.079Z,4.10
2022-09-04T19:15:27.456Z,3.63
2022-09-04T19:18:10.460Z,3.90
2022-09-04T19:21:00.305Z,3.80
2022-09-04T19:23:34.047Z,4.17
2022-09-04T19:26:18.977Z,3.40
2022-09-04T19:29:01.495Z,4.10
2022-09-04T19:31:37.742Z,4.40
2022-09-04T19:34:20.594Z,3.93
2022-09-04T19:36:54.764Z,4.30
2022-09-04T19:46:08.644Z,5.03
2022-09-04T19:46:11.432Z,4.70
2022-09-04T19:46:16.092Z,4.10
2022-09-04T19:48:49.203Z,4.80
2022-09-04T19:53:31.988Z,5.13
2022-09-04T19:54:59.853Z,4.70
2022-09-04T19:57:38.580Z,4.57
2022-09-04T20:00:42.996Z,4.43
2022-09-04T20:03:29.708Z,4.37
2022-09-04T20:06:24.747Z,4.37
2022-09-04T20:09:16.909Z,4.67
2022-09-04T20:11:52.442Z,4.30
2022-09-04T20:14:27.575Z,4.13
2022-09-04T20:17:22.747Z,4.40
2022-09-04T20:19:58.849Z,4.33
2022-09-04T20:22:54.148Z,4.50
2022-09-04T20:25:35.450Z,5.07
2022-09-04T20:28:11.069Z,4.37
2022-09-04T20:30:43.883Z,4.73
2022-09-04T20:33:21.677Z,4.50
2022-09-04T20:35:59.846Z,4.30
2022-09-04T20:38:41.471Z,4.50
2022-09-04T20:41:20.606Z,4.30
2022-09-04T20:43:47.458Z,4.20
2022-09-04T20:52:44.210Z,4.50
2022-09-04T20:52:49.128Z,4.80
2022-09-04T20:52:54.416Z,4.70
2022-09-04T20:55:47.432Z,4.70
2022-09-04T21:03:13.652Z,4.80
2022-09-04T21:03:19.489Z,4.37
2022-09-04T21:04:42.368Z,5.30
2022-09-04T21:07:39.214Z,4.30
2022-09-04T21:10:34.380Z,4.33
2022-09-04T21:13:13.759Z,4.50
2022-09-04T21:15:47.376Z,4.90
2022-09-04T21:18:35.213Z,4.57
2022-09-04T21:21:30.033Z,4.57
2022-09-04T21:24:29.151Z,4.70
2022-09-04T21:27:19.971Z,4.70
2022-09-04T21:30:24.421Z,4.90
2022-09-04T21:33:28.061Z,4.80
2022-09-04T21:36:26.549Z,4.57
2022-09-04T21:39:22.703Z,5.10
2022-09-04T21:42:16.585Z,4.87
2022-09-04T21:45:08.129Z,4.80
2022-09-04T21:47:45.060Z,4.80
2022-09-04T21:50:43.226Z,4.80
2022-09-04T21:53:21.292Z,5.30
2022-09-04T21:58:58.573Z,4.70
2022-09-04T22:02:26.723Z,4.60
2022-09-04T22:02:42.420Z,4.77
2022-09-04T22:05:18.406Z,4.97
2022-09-04T22:13:33.828Z,4.47
2022-09-04T22:13:39.703Z,5.03
2022-09-04T22:14:06.158Z,5.00
2022-09-04T22:16:44.660Z,5.37
2022-09-04T22:19:17.295Z,5.10
2022-09-04T22:22:09.079Z,5.30
2022-09-04T22:24:50.800Z,5.80
2022-09-04T22:28:07.540Z,4.73
2022-09-04T22:31:01.142Z,5.20
2022-09-04T22:34:14.233Z,4.83
2022-09-04T22:37:00.749Z,5.40
2022-09-04T22:39:36.588Z,5.00
2022-09-04T22:42:32.076Z,5.20
2022-09-04T22:45:40.773Z,6.10
2022-09-04T22:48:47.822Z,4.70
2022-09-04T22:51:42.555Z,6.00
2022-09-04T22:54:28.456Z,5.53
2022-09-04T22:56:57.885Z,5.50
2022-09-04T22:59:30.692Z,5.00
2022-09-04T23:02:39.842Z,5.90
2022-09-04T23:05:26.134Z,5.00
2022-09-04T23:13:04.773Z,4.97
2022-09-04T23:13:48.669Z,5.77
2022-09-04T23:14:18.268Z,5.00
2022-09-04T23:17:25.287Z,5.90
2022-09-04T23:26:37.701Z,5.27
2022-09-04T23:26:43.576Z,5.20
2022-09-04T23:27:11.184Z,5.57
2022-09-04T23:29:45.237Z,5.80
2022-09-04T23:32:37.955Z,5.30
2022-09-04T23:35:46.463Z,6.00
2022-09-04T23:38:33.807Z,5.37
2022-09-04T23:41:12.246Z,5.80
2022-09-04T23:44:11.221Z,5.90
2022-09-04T23:46:49.237Z,4.93
2022-09-04T23:49:43.571Z,6.37
2022-09-04T23:52:49.051Z,5.90
2022-09-04T23:55:16.188Z,6.50
2022-09-04T23:57:55.018Z,6.00
